Time;durP1;ratioP1;P1;durP2;ratioP2;P2;SDS_P1;SDS_P2;PMS_P1;PMS_P2;Temp;Humidity;BMP_temperature;BMP_pressure;BME280_temperature;BME280_humidity;BME280_pressure;Samples;Min_cycle;Max_cycle;Signal;HPM_P1;HPM_P2
2022/12/12 00:01:05;;;;;;;8.63;2.77;;;;;;;1.89;70.75;100060.80;1605005;87;21007;-88
2022/12/12 00:03:32;;;;;;;4.30;2.05;;;;;;;1.90;70.67;100053.51;1631126;85;21015;-80
2022/12/12 00:06:02;;;;;;;5.62;2.22;;;;;;;1.91;70.27;100049.66;1652187;85;21078;-89
2022/12/12 00:08:27;;;;;;;6.50;2.45;;;;;;;1.94;69.90;100043.33;1639933;85;21987;-81
2022/12/12 00:10:54;;;;;;;5.10;2.00;;;;;;;1.93;69.89;100044.55;1647056;85;22583;-89
2022/12/12 00:13:21;;;;;;;6.55;2.60;;;;;;;1.91;70.12;100045.77;1644502;85;21458;-81
2022/12/12 00:15:47;;;;;;;7.25;3.10;;;;;;;1.93;70.31;100038.06;1638316;85;21722;-81
2022/12/12 00:18:14;;;;;;;9.35;2.52;;;;;;;1.95;70.49;100037.72;1645682;85;21277;-81
2022/12/12 00:20:41;;;;;;;6.75;3.02;;;;;;;1.99;70.62;100046.55;1649587;85;21707;-82
2022/12/12 00:23:07;;;;;;;6.72;2.60;;;;;;;2.01;70.69;100042.31;1645083;85;21072;-83
2022/12/12 00:25:34;;;;;;;7.67;2.67;;;;;;;2.02;70.72;100046.70;1647009;85;21078;-88
2022/12/12 00:28:01;;;;;;;7.25;2.72;;;;;;;2.03;70.79;100056.29;1637684;85;21063;-88
2022/12/12 00:30:28;;;;;;;6.97;2.62;;;;;;;2.05;70.86;100045.56;1654596;85;21181;-88
2022/12/12 00:32:55;;;;;;;5.55;2.12;;;;;;;2.06;70.43;100062.91;1651983;85;21765;-88
2022/12/12 00:35:23;;;;;;;4.15;1.80;;;;;;;2.08;70.27;100036.22;1651892;85;21900;-88
2022/12/12 00:37:50;;;;;;;3.15;1.75;;;;;;;2.09;69.64;100037.98;1649047;85;21019;-88
2022/12/12 00:40:17;;;;;;;5.47;1.70;;;;;;;2.11;69.20;100041.95;1649830;85;21106;-87
2022/12/12 00:42:44;;;;;;;3.72;1.70;;;;;;;2.09;69.44;100045.77;1647579;85;21521;-88
2022/12/12 00:45:11;;;;;;;4.95;1.75;;;;;;;2.07;69.08;100044.81;1648139;85;21849;-88
2022/12/12 00:47:41;;;;;;;9.33;1.82;;;;;;;2.04;69.01;100055.04;1651717;85;21084;-81
2022/12/12 00:50:07;;;;;;;5.80;2.37;;;;;;;2.01;69.12;100071.78;1649423;85;21153;-81
2022/12/12 00:52:34;;;;;;;8.43;2.20;;;;;;;2.00;69.17;100063.50;1643975;85;21110;-89
2022/12/12 00:55:01;;;;;;;5.67;1.70;;;;;;;2.00;68.94;100053.53;1651257;85;21348;-88
2022/12/12 00:57:28;;;;;;;4.45;1.75;;;;;;;1.98;69.13;100065.13;1646086;85;22201;-88
2022/12/12 00:59:55;;;;;;;4.25;1.80;;;;;;;1.98;69.31;100065.13;1643814;85;21234;-81
2022/12/12 01:02:21;;;;;;;3.95;1.75;;;;;;;1.97;69.02;100067.27;1638295;85;21090;-81
2022/12/12 01:04:48;;;;;;;4.17;2.00;;;;;;;1.96;68.94;100057.69;1654242;85;21070;-81
2022/12/12 01:07:15;;;;;;;6.55;2.22;;;;;;;1.97;68.58;100055.97;1650993;85;21086;-81
2022/12/12 01:09:42;;;;;;;4.35;2.00;;;;;;;1.94;68.60;100056.31;1650284;85;21766;-81
2022/12/12 01:12:09;;;;;;;4.15;2.27;;;;;;;1.94;68.63;100055.42;1642979;85;21113;-81
2022/12/12 01:14:36;;;;;;;3.30;1.75;;;;;;;1.94;68.71;100051.53;1652089;85;21087;-89
2022/12/12 01:17:02;;;;;;;4.85;1.80;;;;;;;1.93;68.70;100053.25;1649241;85;21548;-82
2022/12/12 01:19:29;;;;;;;3.55;1.80;;;;;;;1.93;68.93;100044.55;1647472;85;21073;-90
2022/12/12 01:21:56;;;;;;;6.20;1.92;;;;;;;1.92;69.05;100038.48;1647175;85;21684;-81
2022/12/12 01:24:23;;;;;;;6.42;2.33;;;;;;;1.91;69.10;100050.08;1648100;85;21115;-80
2022/12/12 01:26:49;;;;;;;2.47;1.80;;;;;;;1.89;69.24;100041.33;1650388;85;21035;-80
2022/12/12 01:29:16;;;;;;;3.62;1.92;;;;;;;1.88;69.12;100039.57;1658275;85;21043;-80
2022/12/12 01:31:43;;;;;;;4.90;2.55;;;;;;;1.87;69.33;100041.25;1649369;85;21002;-80
2022/12/12 01:34:10;;;;;;;6.35;2.08;;;;;;;1.87;69.33;100034.77;1649110;85;21733;-80
2022/12/12 01:36:37;;;;;;;3.85;2.35;;;;;;;1.88;69.50;100033.96;1645606;85;21520;-80
2022/12/12 01:39:04;;;;;;;4.72;2.20;;;;;;;1.90;69.61;100038.81;1652564;85;21030;-87
2022/12/12 01:41:31;;;;;;;6.78;2.50;;;;;;;1.88;69.64;100025.30;1646303;85;21524;-80
2022/12/12 01:44:03;;;;;;;4.70;2.12;;;;;;;1.86;69.56;100051.17;1646033;85;21007;-81
2022/12/12 01:46:34;;;;;;;7.05;2.70;;;;;;;1.86;69.33;100043.77;1652889;85;21895;-88
2022/12/12 01:49:24;;;;;;;5.92;2.12;;;;;;;1.85;69.31;100066.23;1647535;85;21079;-80
2022/12/12 01:51:55;;;;;;;7.55;2.60;;;;;;;1.85;69.08;100031.62;1642796;85;21317;-81
2022/12/12 01:54:27;;;;;;;4.67;2.20;;;;;;;1.82;69.16;100032.38;1638133;85;21126;-88
2022/12/12 01:56:55;;;;;;;5.78;2.55;;;;;;;1.79;68.92;100019.66;1649981;85;21101;-89
2022/12/12 01:59:22;;;;;;;5.72;2.47;;;;;;;1.77;69.14;100011.80;1643619;85;21902;-80
2022/12/12 02:01:49;;;;;;;6.40;2.55;;;;;;;1.77;69.04;100022.59;1632686;84;21026;-88
2022/12/12 02:04:16;;;;;;;4.55;2.30;;;;;;;1.76;69.20;100013.89;1654852;84;21109;-80
2022/12/12 02:06:43;;;;;;;5.67;1.90;;;;;;;1.74;69.21;100007.74;1663572;84;22162;-81
2022/12/12 02:09:11;;;;;;;6.17;2.00;;;;;;;1.74;69.29;100004.73;1651923;85;21086;-88
2022/12/12 02:11:53;;;;;;;3.77;1.90;;;;;;;1.74;69.32;99999.96;1633239;85;21758;-80
2022/12/12 02:14:26;;;;;;;6.47;2.37;;;;;;;1.75;69.46;100013.02;1651778;84;21045;-80
2022/12/12 02:17:27;;;;;;;4.17;2.02;;;;;;;1.75;69.58;100002.64;1659286;84;20986;-81
2022/12/12 02:20:18;;;;;;;5.97;2.60;;;;;;;1.73;69.64;100012.47;1652427;84;20987;-88
2022/12/12 02:23:20;;;;;;;6.00;2.17;;;;;;;1.71;69.74;100005.91;1658467;84;21038;-88
2022/12/12 02:26:10;;;;;;;3.83;1.92;;;;;;;1.69;69.65;99997.55;1584456;89;21770;-88
2022/12/12 02:29:09;;;;;;;4.33;1.92;;;;;;;1.68;69.61;99996.66;1546657;91;21125;-81
2022/12/12 02:31:50;;;;;;;8.93;2.55;;;;;;;1.67;69.26;99989.72;1548940;91;21625;-88
2022/12/12 02:34:37;;;;;;;3.98;2.30;;;;;;;1.65;69.31;99970.98;1578874;89;21134;-89
2022/12/12 02:37:40;;;;;;;3.37;1.95;;;;;;;1.63;69.32;99981.28;1503636;93;21115;-89
2022/12/12 02:40:21;;;;;;;4.33;1.82;;;;;;;1.61;69.24;99984.63;1438058;95;21967;-81
2022/12/12 02:43:18;;;;;;;4.10;2.15;;;;;;;1.58;69.38;99982.78;1504396;93;21145;-80
2022/12/12 02:45:52;;;;;;;5.62;2.15;;;;;;;1.48;69.51;99967.19;1504155;93;21752;-80
2022/12/12 02:48:30;;;;;;;5.35;2.17;;;;;;;1.55;69.72;99980.03;1474599;94;21705;-81
2022/12/12 02:50:59;;;;;;;7.35;3.50;;;;;;;1.55;69.85;99982.62;1507691;93;21181;-81
2022/12/12 02:53:26;;;;;;;6.87;3.60;;;;;;;1.56;69.99;99975.34;1505968;93;21190;-81
2022/12/12 02:56:07;;;;;;;5.33;2.35;;;;;;;1.55;70.02;99980.91;1476140;95;21686;-87
2022/12/12 02:58:35;;;;;;;8.88;2.17;;;;;;;1.58;70.08;99987.05;1473244;95;21137;-82
2022/12/12 03:01:10;;;;;;;5.28;2.05;;;;;;;1.63;70.03;100001.15;1485443;95;21086;-82
2022/12/12 03:10:33;;;;;;;5.00;1.60;;;;;;;1.71;69.95;99979.95;1583631;88;21712;-88
2022/12/12 03:13:27;;;;;;;7.60;2.08;;;;;;;1.78;69.96;99977.23;1584854;87;21207;-87
2022/12/12 03:16:19;;;;;;;8.03;2.08;;;;;;;1.81;70.00;99973.50;1641141;85;21096;-80
2022/12/12 03:19:12;;;;;;;5.62;1.85;;;;;;;1.84;70.00;99974.95;1641618;85;22079;-80
2022/12/12 03:21:50;;;;;;;5.00;1.98;;;;;;;1.83;69.92;99971.86;1628026;85;22997;-80
2022/12/12 03:24:40;;;;;;;2.95;1.90;;;;;;;1.84;70.05;99964.95;1621727;86;21145;-87
2022/12/12 03:27:15;;;;;;;5.80;1.85;;;;;;;1.87;69.94;99966.41;1622166;87;21135;-81
2022/12/12 03:29:53;;;;;;;6.10;2.12;;;;;;;1.87;69.86;99962.09;1613934;86;21135;-80
2022/12/12 03:32:24;;;;;;;8.18;2.02;;;;;;;1.88;69.59;99958.70;1624953;85;21033;-87
2022/12/12 03:35:02;;;;;;;5.75;1.90;;;;;;;1.88;69.36;99961.72;1624267;86;21856;-80
2022/12/12 03:37:36;;;;;;;2.40;1.50;;;;;;;1.80;69.15;99953.54;1627110;86;21543;-87
2022/12/12 03:40:17;;;;;;;5.47;2.27;;;;;;;1.77;68.79;99975.89;1621048;86;21049;-80
2022/12/12 03:43:07;;;;;;;4.70;1.87;;;;;;;1.73;68.86;99949.78;1622230;87;21098;-80
2022/12/12 03:45:56;;;;;;;4.60;1.72;;;;;;;1.69;68.83;99950.84;1626776;86;21140;-87
2022/12/12 03:48:30;;;;;;;5.85;1.72;;;;;;;1.63;68.61;99944.08;1628368;86;21793;-88
2022/12/12 03:51:20;;;;;;;3.72;1.62;;;;;;;1.58;68.22;99967.22;1623360;86;21255;-87
2022/12/12 03:54:18;;;;;;;6.22;1.90;;;;;;;1.58;67.89;99989.27;1622124;86;21127;-87
2022/12/12 03:57:02;;;;;;;3.60;1.80;;;;;;;1.54;67.79;99954.51;1628553;85;21271;-81
2022/12/12 03:59:36;;;;;;;5.35;1.90;;;;;;;1.50;68.07;99940.00;1644262;85;21927;-81
2022/12/12 04:02:23;;;;;;;2.10;1.50;;;;;;;1.54;68.17;99962.29;1636504;86;22848;-81
2022/12/12 04:05:15;;;;;;;2.42;1.70;;;;;;;1.55;68.06;99939.83;1543093;90;21294;-80
2022/12/12 04:07:45;;;;;;;3.52;1.60;;;;;;;1.60;68.24;99942.23;1543651;90;21154;-88
2022/12/12 04:13:22;;;;;;;5.97;1.67;;;;;;;1.67;68.52;99947.30;1542256;90;21256;-87
2022/12/12 04:16:14;;;;;;;4.70;1.87;;;;;;;1.70;68.71;99937.08;1520050;91;21817;-81
2022/12/12 04:19:00;;;;;;;5.70;2.02;;;;;;;1.72;68.73;99931.13;1541739;91;21169;-81
2022/12/12 04:24:58;;;;;;;4.50;1.90;;;;;;;1.74;68.41;99926.89;1538140;91;21288;-87
2022/12/12 04:27:31;;;;;;;3.50;1.62;;;;;;;1.74;68.18;99908.73;1543985;91;21075;-81
2022/12/12 04:30:07;;;;;;;4.97;1.92;;;;;;;1.76;68.00;99924.37;1523160;92;21900;-87
2022/12/12 04:33:01;;;;;;;4.30;1.72;;;;;;;1.78;68.00;99914.08;1542632;92;21123;-87
2022/12/12 04:35:43;;;;;;;5.30;1.92;;;;;;;1.77;68.06;99929.19;1524144;92;21720;-88
2022/12/12 04:38:21;;;;;;;5.25;1.90;;;;;;;1.78;68.12;99924.04;1533537;92;21199;-81
2022/12/12 04:40:52;;;;;;;3.90;1.98;;;;;;;1.79;68.26;99920.64;1528425;90;21165;-81
2022/12/12 04:43:30;;;;;;;4.55;1.65;;;;;;;1.80;68.02;99920.23;1543473;91;21869;-81
2022/12/12 04:46:09;;;;;;;7.25;1.87;;;;;;;1.79;68.05;99910.69;1560809;90;21093;-81
2022/12/12 04:48:40;;;;;;;2.42;1.60;;;;;;;1.79;67.98;99903.78;1545069;91;21119;-80
2022/12/12 04:51:07;;;;;;;4.85;1.95;;;;;;;1.78;67.90;99907.59;1558729;91;21146;-80
2022/12/12 04:53:41;;;;;;;3.27;1.95;;;;;;;1.77;68.01;99902.83;1539869;91;21116;-81
2022/12/12 04:56:10;;;;;;;3.20;1.77;;;;;;;1.78;68.09;99913.66;1567680;90;21812;-81
2022/12/12 04:58:37;;;;;;;3.47;2.10;;;;;;;1.78;68.24;99905.88;1570817;90;21154;-82
2022/12/12 05:01:31;;;;;;;4.15;2.15;;;;;;;1.79;68.30;99899.01;1550923;91;21172;-81
2022/12/12 05:04:06;;;;;;;5.72;2.00;;;;;;;1.76;68.47;99906.22;1560305;90;21204;-79
2022/12/12 05:06:41;;;;;;;3.45;1.90;;;;;;;1.73;68.61;99900.91;1561877;90;21099;-81
2022/12/12 05:09:10;;;;;;;3.42;2.10;;;;;;;1.70;68.79;99899.45;1582740;87;21809;-81
2022/12/12 05:11:36;;;;;;;4.35;2.20;;;;;;;1.67;68.93;99894.11;1627008;87;21087;-81
2022/12/12 05:14:04;;;;;;;6.62;2.27;;;;;;;1.63;69.02;99890.91;1624462;86;21127;-81
2022/12/12 05:16:42;;;;;;;4.67;2.00;;;;;;;1.62;69.10;99900.81;1583134;87;21518;-80
2022/12/12 05:19:08;;;;;;;4.75;1.98;;;;;;;1.54;69.20;99897.45;1631802;87;21052;-77
2022/12/12 05:21:35;;;;;;;3.58;2.15;;;;;;;1.49;69.35;99896.33;1618465;86;21939;-77
2022/12/12 05:24:02;;;;;;;5.05;2.33;;;;;;;1.48;69.51;99901.06;1627524;87;21079;-78
2022/12/12 05:26:31;;;;;;;3.77;1.92;;;;;;;1.51;69.71;99899.00;1618911;86;21554;-86
2022/12/12 05:28:58;;;;;;;6.35;2.70;;;;;;;1.51;70.34;99905.07;1623395;87;21541;-83
2022/12/12 05:31:25;;;;;;;7.95;2.80;;;;;;;1.51;70.54;99921.93;1628139;86;21052;-84
2022/12/12 05:33:52;;;;;;;6.60;2.67;;;;;;;1.47;70.87;99910.05;1626713;86;21799;-80
2022/12/12 05:36:19;;;;;;;7.60;2.90;;;;;;;1.36;70.94;99894.85;1624802;87;21091;-80
2022/12/12 05:38:45;;;;;;;5.47;2.72;;;;;;;1.32;71.15;99893.35;1623529;87;21129;-79
2022/12/12 05:41:12;;;;;;;8.90;2.40;;;;;;;1.27;71.38;99898.30;1623932;87;21035;-81
2022/12/12 05:43:39;;;;;;;4.33;2.30;;;;;;;1.25;71.62;99918.08;1624121;87;21068;-80
2022/12/12 05:46:06;;;;;;;5.65;2.77;;;;;;;1.20;74.63;99900.52;1631665;87;21879;-82
2022/12/12 05:48:33;;;;;;;4.08;2.85;;;;;;;1.14;75.15;99904.59;1624804;87;21115;-82
2022/12/12 05:51:02;;;;;;;5.60;2.77;;;;;;;0.95;75.90;99899.32;1629430;87;21059;-86
2022/12/12 05:53:29;;;;;;;5.35;3.02;;;;;;;0.76;76.37;99902.28;1628777;87;21076;-88
2022/12/12 05:55:56;;;;;;;6.08;3.12;;;;;;;0.69;76.84;99898.89;1627370;87;21172;-92
2022/12/12 05:58:23;;;;;;;7.72;3.12;;;;;;;0.63;78.68;99895.13;1624568;87;21803;-90
2022/12/12 06:00:50;;;;;;;6.45;2.92;;;;;;;0.58;79.59;99908.73;1619834;87;21577;-87
2022/12/12 06:03:17;;;;;;;4.70;3.05;;;;;;;0.57;79.19;99909.94;1621581;87;22221;-87
2022/12/12 06:05:44;;;;;;;7.40;3.75;;;;;;;0.60;78.84;99919.56;1622329;87;21075;-83
2022/12/12 06:08:12;;;;;;;5.42;3.17;;;;;;;0.64;78.33;99904.66;1626650;86;21103;-85
2022/12/12 06:10:38;;;;;;;6.90;3.10;;;;;;;0.68;78.21;99907.50;1622236;87;21828;-85
2022/12/12 06:13:05;;;;;;;5.40;3.42;;;;;;;0.74;78.31;99899.14;1619541;87;21705;-83
2022/12/12 06:15:32;;;;;;;8.65;3.02;;;;;;;0.81;78.24;99900.33;1611042;88;21075;-82
2022/12/12 06:17:59;;;;;;;5.75;3.00;;;;;;;0.80;78.32;99899.45;1597684;88;21068;-87
2022/12/12 06:20:25;;;;;;;6.65;3.47;;;;;;;0.76;78.67;99902.28;1606886;87;21102;-90
2022/12/12 06:22:52;;;;;;;6.22;3.25;;;;;;;0.77;78.67;99900.19;1630362;87;22194;-89
2022/12/12 06:25:19;;;;;;;7.42;3.62;;;;;;;0.80;79.53;99909.80;1604884;89;21093;-88
2022/12/12 06:27:46;;;;;;;7.17;3.42;;;;;;;0.81;79.67;99906.80;1598109;87;21622;-83
2022/12/12 06:30:13;;;;;;;7.83;3.65;;;;;;;0.82;79.16;99907.30;1597560;87;21087;-83
2022/12/12 06:32:40;;;;;;;6.28;3.77;;;;;;;0.83;79.01;99908.67;1611365;87;21100;-82
2022/12/12 06:35:08;;;;;;;7.28;3.95;;;;;;;0.84;79.04;99900.08;1601158;87;21989;-82
2022/12/12 06:37:35;;;;;;;7.35;3.40;;;;;;;0.88;79.10;99900.73;1606097;87;21064;-83
2022/12/12 06:40:03;;;;;;;8.38;3.80;;;;;;;0.90;79.04;99891.72;1611025;87;21412;-88
2022/12/12 06:42:30;;;;;;;5.03;3.30;;;;;;;0.89;79.07;99884.77;1593163;87;39348;-89
2022/12/12 06:44:57;;;;;;;8.63;3.77;;;;;;;0.84;78.93;99881.94;1606930;87;21579;-82
2022/12/12 06:47:24;;;;;;;5.83;3.10;;;;;;;0.79;78.95;99884.73;1599591;87;21765;-83
2022/12/12 06:49:54;;;;;;;6.47;3.55;;;;;;;0.78;79.00;99876.05;1596338;88;21095;-83
2022/12/12 06:52:21;;;;;;;6.37;4.03;;;;;;;0.75;79.04;99872.03;1602950;87;21108;-88
2022/12/12 06:54:49;;;;;;;8.20;3.87;;;;;;;0.77;79.17;99866.93;1611242;87;21845;-89
2022/12/12 06:57:16;;;;;;;7.33;4.03;;;;;;;0.81;79.28;99859.78;1598550;88;21054;-89
2022/12/12 06:59:43;;;;;;;8.73;4.67;;;;;;;0.89;79.37;99862.75;1590552;87;22021;-88
2022/12/12 07:02:11;;;;;;;6.08;4.28;;;;;;;0.93;79.38;99865.55;1596432;87;21124;-89
2022/12/12 07:04:37;;;;;;;11.10;3.83;;;;;;;0.99;79.38;99863.67;1599691;87;21958;-89
2022/12/12 07:07:04;;;;;;;7.87;4.25;;;;;;;1.04;79.30;99860.91;1604381;87;21515;-83
2022/12/12 07:09:33;;;;;;;9.70;3.83;;;;;;;1.06;79.13;99855.39;1613470;87;21642;-82
2022/12/12 07:12:00;;;;;;;8.15;4.70;;;;;;;1.09;78.96;99848.16;1605147;87;21874;-83
2022/12/12 07:14:27;;;;;;;7.83;3.85;;;;;;;1.09;78.77;99859.81;1617639;87;21717;-82
2022/12/12 07:16:53;;;;;;;9.58;4.85;;;;;;;1.09;78.53;99867.59;1609125;87;21096;-89
2022/12/12 07:19:21;;;;;;;9.18;3.62;;;;;;;1.06;78.17;99859.27;1604386;87;21125;-88
2022/12/12 07:21:48;;;;;;;8.63;4.00;;;;;;;1.06;78.08;99855.80;1599488;87;21574;-89
2022/12/12 07:24:15;;;;;;;5.70;3.50;;;;;;;1.04;77.94;99870.39;1602467;88;22349;-89
2022/12/12 07:26:41;;;;;;;7.22;3.77;;;;;;;1.03;77.83;99873.78;1599724;89;21065;-89
2022/12/12 07:29:08;;;;;;;7.17;3.47;;;;;;;1.04;77.81;99868.68;1602891;87;21116;-89
2022/12/12 07:31:35;;;;;;;6.45;3.80;;;;;;;1.07;77.73;99869.22;1599879;88;22168;-89
2022/12/12 07:34:02;;;;;;;8.85;3.65;;;;;;;1.08;77.53;99868.42;1604841;87;21057;-88
2022/12/12 07:36:32;;;;;;;6.35;4.05;;;;;;;1.08;77.50;99861.53;1614185;87;21342;-89
2022/12/12 07:38:58;;;;;;;8.60;4.30;;;;;;;1.11;77.35;99859.09;1607419;87;21184;-82
2022/12/12 07:41:25;;;;;;;5.40;3.50;;;;;;;1.14;77.33;99860.94;1605263;87;21728;-88
2022/12/12 07:43:52;;;;;;;7.55;3.65;;;;;;;1.17;77.21;99864.98;1604594;88;21106;-88
2022/12/12 07:46:22;;;;;;;10.93;4.40;;;;;;;1.22;77.18;99866.10;1599875;87;21134;-89
2022/12/12 07:48:49;;;;;;;9.08;4.25;;;;;;;1.27;77.10;99850.75;1599429;88;22677;-88
2022/12/12 07:51:16;;;;;;;8.53;4.35;;;;;;;1.34;76.99;99843.75;1595659;87;21677;-88
2022/12/12 07:53:43;;;;;;;7.00;4.10;;;;;;;1.42;76.93;99857.08;1599813;87;21085;-82
2022/12/12 07:56:12;;;;;;;5.95;3.95;;;;;;;1.48;76.72;99856.05;1603804;87;21677;-88
2022/12/12 07:58:41;;;;;;;5.85;3.27;;;;;;;1.51;76.64;99854.91;1596139;87;21552;-82
2022/12/12 08:01:11;;;;;;;12.13;3.87;;;;;;;1.52;76.50;99848.89;1608754;87;21856;-89
2022/12/12 08:03:38;;;;;;;7.03;3.75;;;;;;;1.54;76.44;99849.88;1598840;88;21045;-82
2022/12/12 08:06:06;;;;;;;7.85;3.35;;;;;;;1.53;76.27;99851.98;1591807;89;21065;-89
2022/12/12 08:08:33;;;;;;;8.60;4.30;;;;;;;1.52;76.18;99843.32;1598443;87;21200;-89
2022/12/12 08:11:07;;;;;;;9.18;4.28;;;;;;;1.53;76.17;99849.39;1609424;87;21016;-88
2022/12/12 08:13:37;;;;;;;;;;;;;;;1.53;76.12;99841.19;1609402;87;22909;-83
2022/12/12 08:16:04;;;;;;;8.03;3.40;;;;;;;1.57;76.17;99862.97;1601387;87;20183;-82
2022/12/12 08:18:31;;;;;;;6.90;4.17;;;;;;;1.63;76.21;99837.73;1601934;87;21098;-89
2022/12/12 08:20:58;;;;;;;12.65;4.37;;;;;;;1.67;76.12;99839.64;1602691;88;21198;-89
2022/12/12 08:23:25;;;;;;;5.95;4.00;;;;;;;1.68;76.13;99846.61;1603331;87;21081;-82
2022/12/12 08:25:52;;;;;;;7.58;4.28;;;;;;;1.71;76.05;99839.86;1598698;87;23040;-89
2022/12/12 08:28:19;;;;;;;6.03;4.12;;;;;;;1.72;75.99;99842.92;1621585;87;21100;-83
2022/12/12 08:30:50;;;;;;;7.92;4.05;;;;;;;1.73;75.93;99855.09;1608860;87;21351;-83
2022/12/12 08:33:18;;;;;;;8.98;4.42;;;;;;;1.79;76.03;99849.70;1609317;87;21549;-88
2022/12/12 08:35:45;;;;;;;7.60;4.03;;;;;;;1.85;76.01;99853.45;1606498;88;21143;-82
2022/12/12 08:38:12;;;;;;;8.85;5.00;;;;;;;1.93;76.31;99867.69;1608577;87;21816;-82
2022/12/12 08:40:40;;;;;;;10.48;4.40;;;;;;;1.97;79.93;99847.04;1606820;87;21547;-82
2022/12/12 08:43:08;;;;;;;8.13;4.47;;;;;;;1.98;80.67;99849.70;1593023;87;21189;-82
2022/12/12 08:45:37;;;;;;;11.93;4.70;;;;;;;2.02;80.21;99852.03;1601837;87;21096;-88
2022/12/12 08:48:05;;;;;;;7.47;4.25;;;;;;;2.07;78.43;99859.20;1603495;87;21170;-84
2022/12/12 08:50:32;;;;;;;10.03;5.53;;;;;;;2.12;77.74;99862.91;1606426;87;21849;-82
2022/12/12 08:53:00;;;;;;;8.18;4.95;;;;;;;2.17;77.31;99861.80;1611814;87;21940;-87
2022/12/12 08:55:27;;;;;;;9.00;5.40;;;;;;;2.09;78.41;99860.58;1613167;87;21101;-88
2022/12/12 08:57:54;;;;;;;7.33;4.35;;;;;;;2.00;78.65;99877.03;1615416;87;21159;-82
2022/12/12 09:00:21;;;;;;;6.78;4.80;;;;;;;1.94;78.95;99875.05;1604509;87;21049;-82
2022/12/12 09:02:50;;;;;;;7.60;5.12;;;;;;;1.90;78.98;99875.73;1611992;87;21792;-82
2022/12/12 09:05:18;;;;;;;8.88;5.12;;;;;;;1.83;79.44;99876.27;1656974;84;21073;-90
2022/12/12 09:07:45;;;;;;;14.40;5.95;;;;;;;1.79;79.36;99871.34;1660461;85;21126;-88
2022/12/12 09:10:12;;;;;;;9.00;5.35;;;;;;;1.79;79.22;99868.75;1658710;84;21152;-88
2022/12/12 09:12:41;;;;;;;8.93;5.67;;;;;;;1.83;79.40;99872.37;1626433;86;21351;-88
2022/12/12 09:15:09;;;;;;;10.90;5.35;;;;;;;1.80;79.46;99880.89;1658832;85;21767;-82
2022/12/12 09:17:36;;;;;;;8.55;4.40;;;;;;;1.75;79.49;99879.39;1643568;86;21468;-82
2022/12/12 09:20:04;;;;;;;8.45;4.92;;;;;;;1.69;80.63;99886.91;1663257;85;21048;-88
2022/12/12 09:22:31;;;;;;;9.43;5.20;;;;;;;1.56;84.56;99889.74;1661161;85;21082;-81
2022/12/12 09:24:58;;;;;;;8.75;5.50;;;;;;;1.53;85.96;99886.58;1652218;85;21480;-88
2022/12/12 09:27:25;;;;;;;9.10;5.00;;;;;;;1.58;84.53;99872.55;1655028;86;21795;-88
2022/12/12 09:29:51;;;;;;;10.63;5.80;;;;;;;1.63;84.19;99872.33;1648870;85;21082;-88
2022/12/12 09:32:19;;;;;;;9.63;5.12;;;;;;;1.65;83.46;99862.94;1653250;85;21109;-88
2022/12/12 09:34:46;;;;;;;9.33;5.70;;;;;;;1.72;83.03;99866.69;1657918;85;21518;-82
2022/12/12 09:37:12;;;;;;;9.05;5.78;;;;;;;1.84;82.68;99876.73;1647559;86;21651;-82
2022/12/12 09:39:40;;;;;;;8.78;5.25;;;;;;;1.92;82.23;99868.91;1631367;86;21772;-88
2022/12/12 09:42:23;;;;;;;9.70;5.50;;;;;;;1.96;81.77;99865.63;1627336;87;21095;-88
2022/12/12 09:44:53;;;;;;;16.20;5.55;;;;;;;2.00;81.61;99874.44;1665733;85;21113;-88
2022/12/12 09:47:37;;;;;;;9.78;5.50;;;;;;;2.02;81.42;99858.10;1648520;85;21109;-88
2022/12/12 09:50:25;;;;;;;8.40;5.42;;;;;;;2.08;81.36;99863.59;1656537;85;21090;-81
2022/12/12 09:52:54;;;;;;;8.38;5.20;;;;;;;2.18;81.38;99866.56;1653327;85;22477;-81
2022/12/12 09:55:44;;;;;;;11.97;6.65;;;;;;;2.22;81.26;99856.82;1646096;85;21109;-89
2022/12/12 09:58:34;;;;;;;10.43;6.28;;;;;;;2.26;81.05;99858.72;1651295;85;21682;-84
2022/12/12 10:01:12;;;;;;;16.23;7.97;;;;;;;2.30;81.09;99865.82;1659241;85;21625;-82
2022/12/12 10:04:05;;;;;;;13.18;6.60;;;;;;;2.32;81.03;99856.39;1649563;86;21082;-88
2022/12/12 10:06:58;;;;;;;11.30;6.10;;;;;;;2.34;80.91;99862.53;1647577;86;21842;-88
2022/12/12 10:10:00;;;;;;;12.45;5.83;;;;;;;2.36;80.99;99854.39;1654664;86;21046;-82
2022/12/12 10:12:28;;;;;;;16.57;6.12;;;;;;;2.39;80.88;99848.47;1648806;86;21013;-82
2022/12/12 10:14:59;;;;;;;11.53;6.47;;;;;;;2.44;80.83;99862.13;1652284;86;21009;-82
2022/12/12 10:17:37;;;;;;;9.28;5.53;;;;;;;2.48;80.80;99848.86;1652828;86;21011;-82
2022/12/12 10:20:09;;;;;;;11.88;5.62;;;;;;;2.60;80.95;99862.77;1631424;87;22867;-88
2022/12/12 10:22:40;;;;;;;6.45;4.75;;;;;;;2.62;80.65;99854.63;1648304;86;21781;-82
2022/12/12 10:25:26;;;;;;;8.45;4.60;;;;;;;2.61;80.61;99859.34;1651755;86;21089;-84
2022/12/12 10:28:17;;;;;;;8.88;5.25;;;;;;;2.56;80.43;99859.58;1655377;86;21093;-90
2022/12/12 10:31:31;;;;;;;7.80;4.53;;;;;;;2.49;80.48;99859.29;1655918;86;21042;-84
2022/12/12 10:34:27;;;;;;;8.90;4.67;;;;;;;2.46;80.50;99853.98;1649137;86;21752;-88
2022/12/12 10:37:11;;;;;;;8.40;4.72;;;;;;;2.48;80.56;99849.73;1655076;86;21081;-88
2022/12/12 10:40:22;;;;;;;11.15;5.03;;;;;;;2.58;80.86;99852.31;1653493;86;21153;-88
2022/12/12 10:43:06;;;;;;;11.50;4.70;;;;;;;2.64;80.71;99857.76;1653635;85;21397;-82
2022/12/12 10:46:10;;;;;;;7.25;4.60;;;;;;;2.63;80.37;99848.20;1654878;85;21503;-82
2022/12/12 10:48:38;;;;;;;7.33;4.87;;;;;;;2.62;80.47;99847.72;1651097;85;25324;-82
2022/12/12 10:51:07;;;;;;;8.00;5.22;;;;;;;2.70;80.48;99835.04;1626198;85;21076;-88
2022/12/12 10:53:34;;;;;;;9.83;5.12;;;;;;;2.79;80.36;99843.22;1657590;85;21147;-88
2022/12/12 10:56:06;;;;;;;9.58;5.03;;;;;;;2.86;80.34;99849.58;1652489;85;21609;-88
2022/12/12 10:58:41;;;;;;;7.95;4.83;;;;;;;2.88;80.16;99833.20;1633744;86;21098;-88
2022/12/12 11:01:21;;;;;;;8.65;5.25;;;;;;;2.86;79.82;99828.36;1652175;85;22608;-88
2022/12/12 11:03:48;;;;;;;6.80;4.62;;;;;;;2.86;79.98;99829.66;1654910;85;21083;-87
2022/12/12 11:06:20;;;;;;;10.65;5.30;;;;;;;2.86;79.74;99831.38;1638789;86;21077;-88
2022/12/12 11:08:59;;;;;;;8.90;4.85;;;;;;;2.91;79.88;99828.14;1647840;85;21405;-88
2022/12/12 11:11:27;;;;;;;9.38;5.58;;;;;;;2.94;79.41;99826.49;1647374;85;21103;-82
2022/12/12 11:13:58;;;;;;;10.85;5.53;;;;;;;2.94;79.37;99827.38;1644543;86;21729;-82
2022/12/12 11:16:31;;;;;;;11.43;5.30;;;;;;;3.01;79.44;99819.42;1648786;85;21161;-82
2022/12/12 11:19:17;;;;;;;10.08;5.62;;;;;;;3.09;79.48;99824.50;1642577;85;21066;-88
2022/12/12 11:21:44;;;;;;;10.03;6.05;;;;;;;3.16;79.20;99825.23;1631392;86;21105;-88
2022/12/12 11:24:20;;;;;;;9.65;5.30;;;;;;;3.16;79.02;99816.13;1631533;85;21090;-83
2022/12/12 11:26:55;;;;;;;11.48;5.50;;;;;;;3.19;78.84;99814.95;1637819;85;21996;-88
2022/12/12 11:29:46;;;;;;;8.03;4.95;;;;;;;3.25;78.70;99809.11;1643964;85;21129;-89
2022/12/12 11:32:22;;;;;;;11.25;5.75;;;;;;;3.25;78.51;99815.19;1644115;85;21094;-82
2022/12/12 11:34:52;;;;;;;9.18;5.40;;;;;;;3.30;78.50;99817.56;1643863;85;21117;-88
2022/12/12 11:37:21;;;;;;;10.43;5.60;;;;;;;3.37;78.52;99816.50;1639316;85;21062;-82
2022/12/12 11:39:50;;;;;;;7.47;5.42;;;;;;;3.42;78.29;99816.27;1637126;85;21874;-82
2022/12/12 11:42:24;;;;;;;9.58;6.12;;;;;;;3.48;78.27;99814.77;1638226;85;21039;-82
2022/12/12 11:45:04;;;;;;;9.83;5.80;;;;;;;3.56;78.17;99805.95;1643280;85;21050;-89
2022/12/12 11:47:42;;;;;;;8.95;5.45;;;;;;;3.61;77.93;99817.85;1643787;85;21074;-83
2022/12/12 11:50:26;;;;;;;10.60;6.28;;;;;;;3.66;77.78;99812.38;1637492;85;21179;-88
2022/12/12 11:53:00;;;;;;;8.80;5.37;;;;;;;3.71;77.58;99813.45;1656617;85;21784;-82
2022/12/12 11:55:38;;;;;;;12.47;6.22;;;;;;;3.74;77.36;99829.62;1642357;85;21065;-82
2022/12/12 11:58:22;;;;;;;9.50;5.85;;;;;;;3.74;77.33;99817.48;1612790;86;21066;-82
2022/12/12 12:01:14;;;;;;;;;;;;;;;3.73;76.85;99826.53;1633719;85;21133;-82
2022/12/12 12:03:55;;;;;;;7.62;4.28;;;;;;;3.69;76.52;99835.94;1638266;85;20493;-82
2022/12/12 12:06:43;;;;;;;8.58;4.60;;;;;;;3.61;76.44;99826.96;1661065;85;21780;-88
2022/12/12 12:09:34;;;;;;;6.60;4.35;;;;;;;3.53;75.98;99820.17;1663610;85;21773;-89
2022/12/12 12:12:28;;;;;;;8.43;4.72;;;;;;;3.42;76.13;99822.77;1663814;85;21120;-82
2022/12/12 12:15:03;;;;;;;10.45;5.08;;;;;;;3.33;76.05;99824.59;1650870;85;21689;-88
2022/12/12 12:18:09;;;;;;;6.85;4.92;;;;;;;3.24;75.86;99823.80;1651530;85;21097;-82
2022/12/12 12:20:52;;;;;;;7.62;4.67;;;;;;;3.22;76.12;99821.98;1656765;85;21471;-89